Nearby METAR Reports

 

KMTN - Baltimore/Martin, Maryland, USA
Distance from station: SSE 8mi, 13km
Updated: Tue, 28-Apr-2015 9:45am EDT
Clear
Clear
 Wind from NW
Wind: NW 13 mph , 20 km/h, Gust: 18 mph , 30 km/h
Temperature: 59°F , 15°C
Dew Point: 43°F , 6°C
Humidity: 55%
Barometer: 29.91 inHg , 1012.9 hPa
Clouds: Clear
Visibility: 10 miles , 16 km
2015/04/28 13:45 KMTN 281345Z 31011G16KT 10SM SKC 15/06 A2991
KDMH - Baltimore/Dwntwn, Maryland, USA
Distance from station: SW 12mi, 19km
Updated: Tue, 28-Apr-2015 9:54am EDT

 
Temperature: 59°F , 15°C
Dew Point: 37°F , 3°C
Humidity: 45%
Barometer: 29.91 inHg , 1012.9 hPa
2015/04/28 13:54 KDMH 281354Z AUTO 15/03 A2991 RMK AO1 SLP127 T01500028
 
KBWI - Balto/Wash Intl, Maryland, USA
Distance from station: SSW 20mi, 33km
Updated: Tue, 28-Apr-2015 9:54am EDT
Few Clouds
Few Clouds
 Wind from NW
Wind: NW 12 mph , 19 km/h, Gust: 22 mph , 35 km/h
Temperature: 57°F , 14°C
Dew Point: 39°F , 4°C
Humidity: 51%
Barometer: 29.90 inHg , 1012.5 hPa
Clouds: Few Clouds
Visibility: 10 miles , 16 km
Cloud details: Few Clouds 9000 ft
2015/04/28 13:54 KBWI 281354Z 32010G19KT 10SM FEW090 14/04 A2990 RMK AO2 SLP124 T01440039
KDMW - Carroll Cnty, Maryland, USA
Distance from station: WNW 30mi, 48km
Updated: Tue, 28-Apr-2015 10:15am EDT
Clear
Clear
 Wind from NNW
Wind: NNW 12 mph , 19 km/h, Gust: 16 mph , 26 km/h
Temperature: 55°F , 13°C
Dew Point: 37°F , 3°C
Humidity: 51%
Barometer: 29.92 inHg , 1013.2 hPa
Clouds: Clear
Visibility: 10 miles , 16 km
2015/04/28 14:15 KDMW 281415Z AUTO 34010G14KT 10SM CLR 13/03 A2992 RMK AO2
 
KNAK - Annapolis/Naval, Maryland, USA
Distance from station: S 30mi, 48km
Updated: Tue, 28-Apr-2015 9:54am EDT
Clear
Clear
 Wind from NW
Wind: NW 10 mph , 17 km/h
Temperature: 57°F , 14°C
Dew Point: 39°F , 4°C
Humidity: 51%
Barometer: 29.90 inHg , 1012.5 hPa
Clouds: Clear
Visibility: 10 miles , 16 km
2015/04/28 13:54 KNAK 281354Z AUTO 31009KT 10SM CLR 14/04 A2990 RMK AO2 SLP126 T01390039
KW29 - Stevensville, Maryland, USA
Distance from station: SSE 31mi, 50km
Updated: Tue, 28-Apr-2015 10:14am EDT

 Wind from NNW
Wind: NNW 12 mph , 19 km/h, Gust: 18 mph , 30 km/h
Barometer: 29.90 inHg , 1012.5 hPa
Visibility: 10 miles , 16 km
2015/04/28 14:14 KW29 281414Z AUTO 33010G16KT 10SM A2990 RMK AO1
 
KCGS - College Park, Maryland, USA
Distance from station: SW 38mi, 61km
Updated: Tue, 28-Apr-2015 10:10am EDT
Clear
Clear
 Wind from NNW
Wind: NNW 6 mph , 9 km/h, Gust: 18 mph , 30 km/h
Temperature: 59°F , 15°C
Dew Point: 37°F , 3°C
Humidity: 45%
Barometer: 29.91 inHg , 1012.9 hPa
Clouds: Clear
Visibility: 10 miles , 16 km
2015/04/28 14:10 KCGS 281410Z AUTO 33005G16KT 10SM CLR 15/03 A2991 RMK AO1
KGAI - Gaithersburg, Maryland, USA
Distance from station: WSW 40mi, 65km
Updated: Tue, 28-Apr-2015 10:15am EDT
Clear
Clear
 Wind from NW
Wind: NW 9 mph , 15 km/h
Temperature: 55°F , 13°C
Dew Point: 39°F , 4°C
Humidity: 55%
Barometer: 29.96 inHg , 1014.6 hPa
Clouds: Clear
Visibility: 10 miles , 16 km
2015/04/28 14:15 KGAI 281415Z AUTO 31008KT 10SM CLR 13/04 A2996 RMK AO1
 
KTHV - York, Pennsylvania, USA
Distance from station: NNW 40mi, 65km
Updated: Tue, 28-Apr-2015 9:53am EDT
Clear
Clear
 Wind from NW
Wind: NW 13 mph , 20 km/h, Gust: 18 mph , 30 km/h
Temperature: 55°F , 13°C
Dew Point: 39°F , 4°C
Humidity: 55%
Barometer: 29.92 inHg , 1013.2 hPa
Clouds: Clear
Visibility: 10 miles , 16 km
2015/04/28 13:53 KTHV 281353Z AUTO 32011G16KT 10SM CLR 13/04 A2992 RMK AO2 SLP136 T01330044
KFDK - Frederick, Maryland, USA
Distance from station: W 47mi, 75km
Updated: Tue, 28-Apr-2015 9:50am EDT
Clear
Clear
 Wind from N
Wind: N 10 mph , 17 km/h
Temperature: 61°F , 16°C
Dew Point: 37°F , 3°C
Humidity: 42%
Barometer: 29.97 inHg , 1014.9 hPa
Clouds: Clear
Visibility: 10 miles , 16 km
2015/04/28 13:50 KFDK 281350Z 36009KT 10SM SKC 16/03 A2997
 
KESN - Easton/Newnam, Maryland, USA
Distance from station: SSE 48mi, 78km
Updated: Tue, 28-Apr-2015 9:50am EDT
Partly cloudy
Partly cloudy
 Wind from N
Wind: N 12 mph , 19 km/h, Gust: 25 mph , 41 km/h
Temperature: 59°F , 15°C
Dew Point: 45°F , 7°C
Humidity: 59%
Barometer: 29.92 inHg , 1013.2 hPa
Clouds: Partly cloudy
Visibility: 10 miles , 16 km
Cloud details: Partly cloudy 4000 ft
2015/04/28 13:50 KESN 281350Z 36010G22KT 10SM SCT040 15/07 A2992
KDCA - Washington/Natl, Washington D.c., USA
Distance from station: SW 49mi, 79km
Updated: Tue, 28-Apr-2015 9:52am EDT
Clear
Clear
 Wind from NW
Wind: NW 20 mph , 31 km/h, Gust: 24 mph , 39 km/h
Temperature: 59°F , 15°C
Dew Point: 41°F , 5°C
Humidity: 51%
Barometer: 29.93 inHg , 1013.5 hPa
Clouds: Clear
Visibility: 10 miles , 16 km
2015/04/28 13:52 KDCA 281352Z 32017G21KT 10SM CLR 15/05 A2993 RMK AO2 SLP136 T01500050
 
KLNS - Lancaster, Pennsylvania, USA
Distance from station: N 49mi, 79km
Updated: Tue, 28-Apr-2015 9:53am EDT
Partly cloudy
Partly cloudy
 Wind from N
Wind: N 14 mph , 22 km/h, Gust: 23 mph , 37 km/h
Temperature: 55°F , 13°C
Dew Point: 41°F , 5°C
Humidity: 59%
Barometer: 29.91 inHg , 1012.9 hPa
Clouds: Partly cloudy
Visibility: 10 miles , 16 km
Cloud details: Partly cloudy 3600 ft
2015/04/28 13:53 KLNS 281353Z 36012G20KT 10SM SCT036 13/05 A2991 RMK AO2 SLP127 T01330050
KILG - Wilmington, Delaware, USA
Distance from station: ENE 50mi, 81km
Updated: Tue, 28-Apr-2015 9:51am EDT
Mostly cloudy
Mostly cloudy
 Wind from NNW
Wind: NNW 18 mph , 30 km/h, Gust: 25 mph , 41 km/h
Temperature: 57°F , 14°C
Dew Point: 39°F , 4°C
Humidity: 51%
Barometer: 29.88 inHg , 1011.9 hPa
Clouds: Mostly cloudy
Visibility: 10 miles , 16 km
Cloud details: Mostly cloudy 4500 ft
2015/04/28 13:51 KILG 281351Z 33016G22KT 10SM BKN045 14/04 A2988 RMK AO2 SLP117 T01440039